Weather at Phoenix Sky Harbor International Airport

Public forecast

Using degrees Fahrenheit for public forecast. Weather courtesy of forecast.io.

Current aviation weather report (METAR) for Phoenix Sky Harbor International Airport

Retrieved 2021/10/19 18:51 UTC (1 hour ago):

KPHX 191851Z 34005KT 10SM FEW070 24/06 A2997 RMK AO2 SLP134 T02390061

Aviation forecast (TAF) for Phoenix Sky Harbor International Airport

Retrieved 2021/10/19 18:22 UTC (2 hours ago):

TAF KPHX 191720Z 1918/2024 16005KT P6SM FEW080 FEW120 FM191900 19006KT P6SM SKC FM192200 26006KT P6SM SKC FM200700 10005KT P6SM SKC FM202000 26005KT P6SM SCT200